Jugendreisen

Hotel Caribbean Bay

Direkt zu den Terminen & Preisen
Super Frühbucherrabatt bis 31.10.2019

Infos
Strand: 200 m
Disco: 1800 m
Shopping: 400 m
Gepäckraum
Dusche
W-LAN gg. Gebühr
Safe gg. Gebühr
Pool
Gratis Klimaanlage
Balkon
SAT-TV
All inclusive
 
Hotelbilder
Die Lage
Am Ortseingang Arenals liegt das 3 Sterne All inclusive Hotel Caribbean Bay. Unser Newcomer wurde 2013 komplett renoviert und besticht unter anderem durch seine perfekte Strandlage und dem guten Preis-Leistungsverhältnis. Nur ca. 200m trennen euch vom azurblauen Mittelmeer. Urlaubsfeeling pur!
Eure Zimmer
Die modernen und freundlichen Zimmer des Caribbean Bay sind alle mit Dusche/WC und Föhn sowie SAT-TV ausgestattet. Die Klimaanlage sorgt für eine angenehme Raumtemperatur. Auf dem Balkon / Terrasse könnt ihr entspannt mit euren Freunden zusammen sitzen.

Damit eure Wertsachen sicher verstaut sind, könnt ihr an der Rezeption einen Safe mieten.
Ausstattung
Neben den komfortablen und modernen 224 Zimmern ist das Highlight des Hotels in luftiger Höhe zu finden. Einer von zwei Hotelpools befindet sich auf der oberen Hotelterrasse und bietet euch einen exklusiven Blick auf die Dächer von Palma und den Strand der Playa de Palma. (Sonnenliegen und Schirme inklusive!)
Eure Verpflegung
Hier seid ihr bestens versorgt! Im Reisepreis enthalten ist das umfangreiche Buffet zum Frühstück, Mittag-/ und Abendessen im hoteleigenen Restaurant.
Für den Hunger zwischendurch gibt es Snacks bis 18 Uhr und an der Pool Bar und Lobby Bar neben dem Eingangsbereich könnt ihr von 10:30 bis 23:00 Uhr den Getränkeservice in vollen Zügen auskosten.
Abflughäfen
Abflughäfen
Basel
Berlin-Schönefeld
Berlin-Tegel
Bremen
Dortmund
Dresden
Düsseldorf
Erfurt
Frankfurt/Main
Hamburg
Hannover
Innsbruck
Karlsruhe/Baden-Baden
Köln/Bonn
Leipzig/Halle
Luxemburg
München
Münster/Osnabrück
Nürnberg
Paderborn/Lippstadt
Salzburg
Stuttgart
Wien
Zürich
Termine & Preise
Reiseart:
Flug
Tage bitte wählen:
Termin Preis
Preise für 2020
Mai
03.05 - 08.05.2020 549  529 € Expressangebot holen
04.05 - 09.05.2020 549  529 € Expressangebot holen
05.05 - 10.05.2020 549  529 € Expressangebot holen
06.05 - 11.05.2020 549  529 € Expressangebot holen
07.05 - 12.05.2020 549  529 € Expressangebot holen
08.05 - 13.05.2020 549  529 € Expressangebot holen
10.05 - 15.05.2020 549  529 € Expressangebot holen
11.05 - 16.05.2020 549  529 € Expressangebot holen
12.05 - 17.05.2020 469  449 € Expressangebot holen
13.05 - 18.05.2020 469  449 € Expressangebot holen
14.05 - 19.05.2020 469  449 € Expressangebot holen
15.05 - 20.05.2020 469  449 € Expressangebot holen
17.05 - 22.05.2020 469  449 € Expressangebot holen
18.05 - 23.05.2020 469  449 € Expressangebot holen
19.05 - 24.05.2020 469  449 € Expressangebot holen
20.05 - 25.05.2020 469  449 € Expressangebot holen
21.05 - 26.05.2020 469  449 € Expressangebot holen
22.05 - 27.05.2020 469  449 € Expressangebot holen
24.05 - 29.05.2020 469  449 € Expressangebot holen
25.05 - 30.05.2020 469  449 € Expressangebot holen
26.05 - 31.05.2020 469  449 € Expressangebot holen
27.05 - 01.06.2020 479  459 € Expressangebot holen
28.05 - 02.06.2020 489  469 € Expressangebot holen
29.05 - 03.06.2020 499  479 € Expressangebot holen
31.05 - 05.06.2020 639  619 € Expressangebot holen
Juni
01.06 - 06.06.2020 639  619 € Expressangebot holen
02.06 - 07.06.2020 639  619 € Expressangebot holen
03.06 - 08.06.2020 639  619 € Expressangebot holen
04.06 - 09.06.2020 639  619 € Expressangebot holen
05.06 - 10.06.2020 519  499 € Expressangebot holen
07.06 - 12.06.2020 519  499 € Expressangebot holen
08.06 - 13.06.2020 599  579 € Expressangebot holen
09.06 - 14.06.2020 599  579 € Expressangebot holen
10.06 - 15.06.2020 599  579 € Expressangebot holen
11.06 - 16.06.2020 599  579 € Expressangebot holen
12.06 - 17.06.2020 599  579 € Expressangebot holen
14.06 - 19.06.2020 599  579 € Expressangebot holen
15.06 - 20.06.2020 599  579 € Expressangebot holen
16.06 - 21.06.2020 599  579 € Expressangebot holen
17.06 - 22.06.2020 599  579 € Expressangebot holen
18.06 - 23.06.2020 519  499 € Expressangebot holen
19.06 - 24.06.2020 529  509 € Expressangebot holen
21.06 - 26.06.2020 559  539 € Expressangebot holen
22.06 - 27.06.2020 569  549 € Expressangebot holen
23.06 - 28.06.2020 579  559 € Expressangebot holen
24.06 - 29.06.2020 579  559 € Expressangebot holen
25.06 - 30.06.2020 579  559 € Expressangebot holen
26.06 - 01.07.2020 579  559 € Expressangebot holen
28.06 - 03.07.2020 579  559 € Expressangebot holen
29.06 - 04.07.2020 579  559 € Expressangebot holen
30.06 - 05.07.2020 579  559 € Expressangebot holen
Juli
01.07 - 06.07.2020 579  559 € Expressangebot holen
02.07 - 07.07.2020 579  559 € Expressangebot holen
03.07 - 08.07.2020 579  559 € Expressangebot holen
05.07 - 10.07.2020 579  559 € Expressangebot holen
06.07 - 11.07.2020 579  559 € Expressangebot holen
07.07 - 12.07.2020 619  599 € Expressangebot holen
08.07 - 13.07.2020 619  599 € Expressangebot holen
09.07 - 14.07.2020 619  599 € Expressangebot holen
10.07 - 15.07.2020 619  599 € Expressangebot holen
12.07 - 17.07.2020 649  629 € Expressangebot holen
13.07 - 18.07.2020 659  639 € Expressangebot holen
14.07 - 19.07.2020 679  659 € Expressangebot holen
15.07 - 20.07.2020 689  669 € Expressangebot holen
16.07 - 21.07.2020 689  669 € Expressangebot holen
17.07 - 22.07.2020 689  669 € Expressangebot holen
19.07 - 24.07.2020 689  669 € Expressangebot holen
20.07 - 25.07.2020 689  669 € Expressangebot holen
21.07 - 26.07.2020 689  669 € Expressangebot holen
22.07 - 27.07.2020 689  669 € Expressangebot holen
23.07 - 28.07.2020 689  669 € Expressangebot holen
24.07 - 29.07.2020 689  669 € Expressangebot holen
26.07 - 31.07.2020 689  669 € Expressangebot holen
27.07 - 01.08.2020 689  669 € Expressangebot holen
28.07 - 02.08.2020 689  669 € Expressangebot holen
29.07 - 03.08.2020 689  669 € Expressangebot holen
30.07 - 04.08.2020 689  669 € Expressangebot holen
31.07 - 05.08.2020 689  669 € Expressangebot holen
August
02.08 - 07.08.2020 689  669 € Expressangebot holen
03.08 - 08.08.2020 689  669 € Expressangebot holen
04.08 - 09.08.2020 689  669 € Expressangebot holen
05.08 - 10.08.2020 689  669 € Expressangebot holen
06.08 - 11.08.2020 689  669 € Expressangebot holen
07.08 - 12.08.2020 689  669 € Expressangebot holen
09.08 - 14.08.2020 689  669 € Expressangebot holen
10.08 - 15.08.2020 689  669 € Expressangebot holen
11.08 - 16.08.2020 689  669 € Expressangebot holen
12.08 - 17.08.2020 689  669 € Expressangebot holen
13.08 - 18.08.2020 689  669 € Expressangebot holen
14.08 - 19.08.2020 659  639 € Expressangebot holen
16.08 - 21.08.2020 659  639 € Expressangebot holen
17.08 - 22.08.2020 659  639 € Expressangebot holen
18.08 - 23.08.2020 659  639 € Expressangebot holen
19.08 - 24.08.2020 659  639 € Expressangebot holen
20.08 - 25.08.2020 659  639 € Expressangebot holen
21.08 - 26.08.2020 659  639 € Expressangebot holen
23.08 - 28.08.2020 639  619 € Expressangebot holen
24.08 - 29.08.2020 619  599 € Expressangebot holen
25.08 - 30.08.2020 609  589 € Expressangebot holen
26.08 - 31.08.2020 589  569 € Expressangebot holen
27.08 - 01.09.2020 579  559 € Expressangebot holen
28.08 - 02.09.2020 579  559 € Expressangebot holen
30.08 - 04.09.2020 579  559 € Expressangebot holen
31.08 - 05.09.2020 579  559 € Expressangebot holen
September
01.09 - 06.09.2020 579  559 € Expressangebot holen
02.09 - 07.09.2020 579  559 € Expressangebot holen
03.09 - 08.09.2020 579  559 € Expressangebot holen
04.09 - 09.09.2020 579  559 € Expressangebot holen
06.09 - 11.09.2020 559  539 € Expressangebot holen
Alle Flugpreise exklusive Transfer, außer bei Goldstrand und Sonnenstrand.
Termin Preis
Preise für 2020
Mai
03.05 - 10.05.2020 619  599 € Expressangebot holen
04.05 - 11.05.2020 619  599 € Expressangebot holen
05.05 - 12.05.2020 619  599 € Expressangebot holen
06.05 - 13.05.2020 619  599 € Expressangebot holen
07.05 - 14.05.2020 619  599 € Expressangebot holen
08.05 - 15.05.2020 619  599 € Expressangebot holen
10.05 - 17.05.2020 619  599 € Expressangebot holen
11.05 - 18.05.2020 619  599 € Expressangebot holen
12.05 - 19.05.2020 539  519 € Expressangebot holen
13.05 - 20.05.2020 539  519 € Expressangebot holen
14.05 - 21.05.2020 539  519 € Expressangebot holen
15.05 - 22.05.2020 539  519 € Expressangebot holen
17.05 - 24.05.2020 539  519 € Expressangebot holen
18.05 - 25.05.2020 539  519 € Expressangebot holen
19.05 - 26.05.2020 539  519 € Expressangebot holen
20.05 - 27.05.2020 539  519 € Expressangebot holen
21.05 - 28.05.2020 539  519 € Expressangebot holen
22.05 - 29.05.2020 539  519 € Expressangebot holen
24.05 - 31.05.2020 539  519 € Expressangebot holen
25.05 - 01.06.2020 549  529 € Expressangebot holen
26.05 - 02.06.2020 559  539 € Expressangebot holen
27.05 - 03.06.2020 569  549 € Expressangebot holen
28.05 - 04.06.2020 579  559 € Expressangebot holen
29.05 - 05.06.2020 589  569 € Expressangebot holen
31.05 - 07.06.2020 729  709 € Expressangebot holen
Juni
01.06 - 08.06.2020 729  709 € Expressangebot holen
02.06 - 09.06.2020 729  709 € Expressangebot holen
03.06 - 10.06.2020 729  709 € Expressangebot holen
04.06 - 11.06.2020 729  709 € Expressangebot holen
05.06 - 12.06.2020 609  589 € Expressangebot holen
07.06 - 14.06.2020 609  589 € Expressangebot holen
08.06 - 15.06.2020 689  669 € Expressangebot holen
09.06 - 16.06.2020 689  669 € Expressangebot holen
10.06 - 17.06.2020 689  669 € Expressangebot holen
11.06 - 18.06.2020 689  669 € Expressangebot holen
12.06 - 19.06.2020 689  669 € Expressangebot holen
14.06 - 21.06.2020 689  669 € Expressangebot holen
15.06 - 22.06.2020 689  669 € Expressangebot holen
16.06 - 23.06.2020 689  669 € Expressangebot holen
17.06 - 24.06.2020 709  689 € Expressangebot holen
18.06 - 25.06.2020 639  619 € Expressangebot holen
19.06 - 26.06.2020 649  629 € Expressangebot holen
21.06 - 28.06.2020 679  659 € Expressangebot holen
22.06 - 29.06.2020 689  669 € Expressangebot holen
23.06 - 30.06.2020 699  679 € Expressangebot holen
24.06 - 01.07.2020 699  679 € Expressangebot holen
25.06 - 02.07.2020 699  679 € Expressangebot holen
26.06 - 03.07.2020 699  679 € Expressangebot holen
28.06 - 05.07.2020 699  679 € Expressangebot holen
29.06 - 06.07.2020 699  679 € Expressangebot holen
30.06 - 07.07.2020 699  679 € Expressangebot holen
Juli
01.07 - 08.07.2020 699  679 € Expressangebot holen
02.07 - 09.07.2020 699  679 € Expressangebot holen
03.07 - 10.07.2020 699  679 € Expressangebot holen
05.07 - 12.07.2020 699  679 € Expressangebot holen
06.07 - 13.07.2020 699  679 € Expressangebot holen
07.07 - 14.07.2020 739  719 € Expressangebot holen
08.07 - 15.07.2020 739  719 € Expressangebot holen
09.07 - 16.07.2020 749  729 € Expressangebot holen
10.07 - 17.07.2020 769  749 € Expressangebot holen
12.07 - 19.07.2020 789  769 € Expressangebot holen
13.07 - 20.07.2020 809  789 € Expressangebot holen
14.07 - 21.07.2020 819  799 € Expressangebot holen
15.07 - 22.07.2020 839  819 € Expressangebot holen
16.07 - 23.07.2020 839  819 € Expressangebot holen
17.07 - 24.07.2020 839  819 € Expressangebot holen
19.07 - 26.07.2020 839  819 € Expressangebot holen
20.07 - 27.07.2020 839  819 € Expressangebot holen
21.07 - 28.07.2020 839  819 € Expressangebot holen
22.07 - 29.07.2020 839  819 € Expressangebot holen
23.07 - 30.07.2020 839  819 € Expressangebot holen
24.07 - 31.07.2020 839  819 € Expressangebot holen
26.07 - 02.08.2020 839  819 € Expressangebot holen
27.07 - 03.08.2020 839  819 € Expressangebot holen
28.07 - 04.08.2020 839  819 € Expressangebot holen
29.07 - 05.08.2020 839  819 € Expressangebot holen
30.07 - 06.08.2020 839  819 € Expressangebot holen
31.07 - 07.08.2020 839  819 € Expressangebot holen
August
02.08 - 09.08.2020 839  819 € Expressangebot holen
03.08 - 10.08.2020 839  819 € Expressangebot holen
04.08 - 11.08.2020 839  819 € Expressangebot holen
05.08 - 12.08.2020 839  819 € Expressangebot holen
06.08 - 13.08.2020 839  819 € Expressangebot holen
07.08 - 14.08.2020 839  819 € Expressangebot holen
09.08 - 16.08.2020 839  819 € Expressangebot holen
10.08 - 17.08.2020 839  819 € Expressangebot holen
11.08 - 18.08.2020 839  819 € Expressangebot holen
12.08 - 19.08.2020 839  819 € Expressangebot holen
13.08 - 20.08.2020 839  819 € Expressangebot holen
14.08 - 21.08.2020 799  779 € Expressangebot holen
16.08 - 23.08.2020 799  779 € Expressangebot holen
17.08 - 24.08.2020 799  779 € Expressangebot holen
18.08 - 25.08.2020 799  779 € Expressangebot holen
19.08 - 26.08.2020 799  779 € Expressangebot holen
20.08 - 27.08.2020 799  779 € Expressangebot holen
21.08 - 28.08.2020 789  769 € Expressangebot holen
23.08 - 30.08.2020 749  729 € Expressangebot holen
24.08 - 31.08.2020 739  719 € Expressangebot holen
25.08 - 01.09.2020 719  699 € Expressangebot holen
26.08 - 02.09.2020 709  689 € Expressangebot holen
27.08 - 03.09.2020 689  669 € Expressangebot holen
28.08 - 04.09.2020 689  669 € Expressangebot holen
30.08 - 06.09.2020 689  669 € Expressangebot holen
31.08 - 07.09.2020 689  669 € Expressangebot holen
September
01.09 - 08.09.2020 689  669 € Expressangebot holen
02.09 - 09.09.2020 689  669 € Expressangebot holen
03.09 - 10.09.2020 689  669 € Expressangebot holen
04.09 - 11.09.2020 679  659 € Expressangebot holen
Alle Flugpreise exklusive Transfer, außer bei Goldstrand und Sonnenstrand.
Termin Preis
Preise für 2020
Mai
03.05 - 17.05.2020 849 € Expressangebot holen
04.05 - 18.05.2020 849 € Expressangebot holen
05.05 - 19.05.2020 849 € Expressangebot holen
06.05 - 20.05.2020 849 € Expressangebot holen
07.05 - 21.05.2020 849 € Expressangebot holen
08.05 - 22.05.2020 849 € Expressangebot holen
10.05 - 24.05.2020 849 € Expressangebot holen
11.05 - 25.05.2020 849 € Expressangebot holen
12.05 - 26.05.2020 769 € Expressangebot holen
13.05 - 27.05.2020 769 € Expressangebot holen
14.05 - 28.05.2020 769 € Expressangebot holen
15.05 - 29.05.2020 769 € Expressangebot holen
17.05 - 31.05.2020 769 € Expressangebot holen
18.05 - 01.06.2020 779 € Expressangebot holen
19.05 - 02.06.2020 789 € Expressangebot holen
20.05 - 03.06.2020 799 € Expressangebot holen
21.05 - 04.06.2020 809 € Expressangebot holen
22.05 - 05.06.2020 819 € Expressangebot holen
24.05 - 07.06.2020 839 € Expressangebot holen
25.05 - 08.06.2020 849 € Expressangebot holen
26.05 - 09.06.2020 859 € Expressangebot holen
27.05 - 10.06.2020 869 € Expressangebot holen
28.05 - 11.06.2020 879 € Expressangebot holen
29.05 - 12.06.2020 889 € Expressangebot holen
31.05 - 14.06.2020 1029 € Expressangebot holen
Juni
01.06 - 15.06.2020 1029 € Expressangebot holen
02.06 - 16.06.2020 1029 € Expressangebot holen
03.06 - 17.06.2020 1029 € Expressangebot holen
04.06 - 18.06.2020 1029 € Expressangebot holen
05.06 - 19.06.2020 909 € Expressangebot holen
07.06 - 21.06.2020 909 € Expressangebot holen
08.06 - 22.06.2020 999 € Expressangebot holen
09.06 - 23.06.2020 999 € Expressangebot holen
10.06 - 24.06.2020 1009 € Expressangebot holen
11.06 - 25.06.2020 1019 € Expressangebot holen
12.06 - 26.06.2020 1039 € Expressangebot holen
14.06 - 28.06.2020 1059 € Expressangebot holen
15.06 - 29.06.2020 1069 € Expressangebot holen
16.06 - 30.06.2020 1089 € Expressangebot holen
17.06 - 01.07.2020 1099 € Expressangebot holen
18.06 - 02.07.2020 1029 € Expressangebot holen
19.06 - 03.07.2020 1039 € Expressangebot holen
21.06 - 05.07.2020 1069 € Expressangebot holen
22.06 - 06.07.2020 1079 € Expressangebot holen
23.06 - 07.07.2020 1089 € Expressangebot holen
24.06 - 08.07.2020 1089 € Expressangebot holen
25.06 - 09.07.2020 1089 € Expressangebot holen
26.06 - 10.07.2020 1089 € Expressangebot holen
28.06 - 12.07.2020 1089 € Expressangebot holen
29.06 - 13.07.2020 1089 € Expressangebot holen
30.06 - 14.07.2020 1089 € Expressangebot holen
Juli
01.07 - 15.07.2020 1089 € Expressangebot holen
02.07 - 16.07.2020 1109 € Expressangebot holen
03.07 - 17.07.2020 1119 € Expressangebot holen
05.07 - 19.07.2020 1149 € Expressangebot holen
06.07 - 20.07.2020 1169 € Expressangebot holen
07.07 - 21.07.2020 1219 € Expressangebot holen
08.07 - 22.07.2020 1229 € Expressangebot holen
09.07 - 23.07.2020 1239 € Expressangebot holen
10.07 - 24.07.2020 1259 € Expressangebot holen
12.07 - 26.07.2020 1289 € Expressangebot holen
13.07 - 27.07.2020 1299 € Expressangebot holen
14.07 - 28.07.2020 1319 € Expressangebot holen
15.07 - 29.07.2020 1329 € Expressangebot holen
16.07 - 30.07.2020 1329 € Expressangebot holen
17.07 - 31.07.2020 1329 € Expressangebot holen
19.07 - 02.08.2020 1329 € Expressangebot holen
20.07 - 03.08.2020 1329 € Expressangebot holen
21.07 - 04.08.2020 1329 € Expressangebot holen
22.07 - 05.08.2020 1329 € Expressangebot holen
23.07 - 06.08.2020 1329 € Expressangebot holen
24.07 - 07.08.2020 1329 € Expressangebot holen
26.07 - 09.08.2020 1329 € Expressangebot holen
27.07 - 10.08.2020 1329 € Expressangebot holen
28.07 - 11.08.2020 1329 € Expressangebot holen
29.07 - 12.08.2020 1329 € Expressangebot holen
30.07 - 13.08.2020 1329 € Expressangebot holen
31.07 - 14.08.2020 1329 € Expressangebot holen
August
02.08 - 16.08.2020 1329 € Expressangebot holen
03.08 - 17.08.2020 1329 € Expressangebot holen
04.08 - 18.08.2020 1329 € Expressangebot holen
05.08 - 19.08.2020 1329 € Expressangebot holen
06.08 - 20.08.2020 1329 € Expressangebot holen
07.08 - 21.08.2020 1329 € Expressangebot holen
09.08 - 23.08.2020 1329 € Expressangebot holen
10.08 - 24.08.2020 1329 € Expressangebot holen
11.08 - 25.08.2020 1329 € Expressangebot holen
12.08 - 26.08.2020 1329 € Expressangebot holen
13.08 - 27.08.2020 1329 € Expressangebot holen
14.08 - 28.08.2020 1279 € Expressangebot holen
16.08 - 30.08.2020 1249 € Expressangebot holen
17.08 - 31.08.2020 1229 € Expressangebot holen
18.08 - 01.09.2020 1219 € Expressangebot holen
19.08 - 02.09.2020 1199 € Expressangebot holen
20.08 - 03.09.2020 1179 € Expressangebot holen
21.08 - 04.09.2020 1169 € Expressangebot holen
23.08 - 06.09.2020 1129 € Expressangebot holen
24.08 - 07.09.2020 1119 € Expressangebot holen
25.08 - 08.09.2020 1099 € Expressangebot holen
26.08 - 09.09.2020 1089 € Expressangebot holen
27.08 - 10.09.2020 1069 € Expressangebot holen
28.08 - 11.09.2020 1059 € Expressangebot holen
Alle Flugpreise exklusive Transfer, außer bei Goldstrand und Sonnenstrand.
Erlebe einen super Urlaub mit FUN-ABI ab 449,00 € und 1.329,00 €.